sensor_id;sensor_type;location;lat;lon;timestamp;P1;durP1;ratioP1;P2;durP2;ratioP2
30301;SDS011;17111;52.130;5.028;2024-03-06T00:01:16;8.43;;;5.72;;
30301;SDS011;17111;52.130;5.028;2024-03-06T00:03:43;7.15;;;5.75;;
30301;SDS011;17111;52.130;5.028;2024-03-06T00:06:09;7.13;;;5.32;;
30301;SDS011;17111;52.130;5.028;2024-03-06T00:08:36;7.38;;;5.65;;
30301;SDS011;17111;52.130;5.028;2024-03-06T00:11:03;6.82;;;5.53;;
30301;SDS011;17111;52.130;5.028;2024-03-06T00:13:30;6.82;;;5.28;;
30301;SDS011;17111;52.130;5.028;2024-03-06T00:15:57;7.78;;;6.03;;
30301;SDS011;17111;52.130;5.028;2024-03-06T00:18:23;8.55;;;6.03;;
30301;SDS011;17111;52.130;5.028;2024-03-06T00:20:50;7.63;;;5.68;;
30301;SDS011;17111;52.130;5.028;2024-03-06T00:23:17;6.70;;;5.30;;
30301;SDS011;17111;52.130;5.028;2024-03-06T00:25:43;6.65;;;4.93;;
30301;SDS011;17111;52.130;5.028;2024-03-06T00:28:10;6.00;;;4.78;;
30301;SDS011;17111;52.130;5.028;2024-03-06T00:30:36;7.25;;;5.80;;
30301;SDS011;17111;52.130;5.028;2024-03-06T00:33:03;7.07;;;5.30;;
30301;SDS011;17111;52.130;5.028;2024-03-06T00:35:30;6.70;;;5.30;;
30301;SDS011;17111;52.130;5.028;2024-03-06T00:37:56;6.43;;;5.22;;
30301;SDS011;17111;52.130;5.028;2024-03-06T00:40:23;8.48;;;5.50;;
30301;SDS011;17111;52.130;5.028;2024-03-06T00:42:50;7.60;;;5.72;;
30301;SDS011;17111;52.130;5.028;2024-03-06T00:45:16;6.30;;;4.93;;
30301;SDS011;17111;52.130;5.028;2024-03-06T00:47:43;8.23;;;5.00;;
30301;SDS011;17111;52.130;5.028;2024-03-06T00:50:10;6.93;;;5.15;;
30301;SDS011;17111;52.130;5.028;2024-03-06T00:52:37;7.72;;;5.57;;
30301;SDS011;17111;52.130;5.028;2024-03-06T00:55:04;6.15;;;4.80;;
30301;SDS011;17111;52.130;5.028;2024-03-06T00:57:31;6.85;;;5.30;;
30301;SDS011;17111;52.130;5.028;2024-03-06T00:59:58;7.57;;;5.32;;
30301;SDS011;17111;52.130;5.028;2024-03-06T01:02:24;6.75;;;5.18;;
30301;SDS011;17111;52.130;5.028;2024-03-06T01:04:51;5.95;;;4.68;;
30301;SDS011;17111;52.130;5.028;2024-03-06T01:07:18;6.57;;;4.93;;
30301;SDS011;17111;52.130;5.028;2024-03-06T01:09:45;5.30;;;4.60;;
30301;SDS011;17111;52.130;5.028;2024-03-06T01:12:11;6.35;;;5.05;;
30301;SDS011;17111;52.130;5.028;2024-03-06T01:14:38;6.57;;;4.95;;
30301;SDS011;17111;52.130;5.028;2024-03-06T01:17:06;6.35;;;5.15;;
30301;SDS011;17111;52.130;5.028;2024-03-06T01:19:32;6.28;;;5.05;;
30301;SDS011;17111;52.130;5.028;2024-03-06T01:21:59;6.03;;;4.93;;
30301;SDS011;17111;52.130;5.028;2024-03-06T01:24:26;6.68;;;4.95;;
30301;SDS011;17111;52.130;5.028;2024-03-06T01:26:52;4.65;;;4.15;;
30301;SDS011;17111;52.130;5.028;2024-03-06T01:29:19;5.18;;;4.15;;
30301;SDS011;17111;52.130;5.028;2024-03-06T01:31:46;6.82;;;4.53;;
30301;SDS011;17111;52.130;5.028;2024-03-06T01:34:13;5.90;;;4.53;;
30301;SDS011;17111;52.130;5.028;2024-03-06T01:36:40;6.13;;;4.65;;
30301;SDS011;17111;52.130;5.028;2024-03-06T01:39:06;6.72;;;5.03;;
30301;SDS011;17111;52.130;5.028;2024-03-06T01:41:33;6.38;;;5.05;;
30301;SDS011;17111;52.130;5.028;2024-03-06T01:43:59;6.10;;;5.05;;
30301;SDS011;17111;52.130;5.028;2024-03-06T01:46:26;5.97;;;4.43;;
30301;SDS011;17111;52.130;5.028;2024-03-06T01:48:52;5.35;;;4.35;;
30301;SDS011;17111;52.130;5.028;2024-03-06T01:51:19;6.18;;;4.57;;
30301;SDS011;17111;52.130;5.028;2024-03-06T01:53:46;6.15;;;4.45;;
30301;SDS011;17111;52.130;5.028;2024-03-06T01:56:13;6.05;;;4.78;;
30301;SDS011;17111;52.130;5.028;2024-03-06T01:58:45;5.90;;;4.72;;
30301;SDS011;17111;52.130;5.028;2024-03-06T02:01:13;5.63;;;4.68;;
30301;SDS011;17111;52.130;5.028;2024-03-06T02:03:41;6.60;;;4.55;;
30301;SDS011;17111;52.130;5.028;2024-03-06T02:06:09;6.75;;;4.90;;
30301;SDS011;17111;52.130;5.028;2024-03-06T02:08:38;5.68;;;4.55;;
30301;SDS011;17111;52.130;5.028;2024-03-06T02:11:04;5.32;;;4.50;;
30301;SDS011;17111;52.130;5.028;2024-03-06T02:13:33;6.32;;;4.47;;
30301;SDS011;17111;52.130;5.028;2024-03-06T02:16:00;5.68;;;4.40;;
30301;SDS011;17111;52.130;5.028;2024-03-06T02:18:27;6.10;;;4.72;;
30301;SDS011;17111;52.130;5.028;2024-03-06T02:20:53;7.82;;;5.00;;
30301;SDS011;17111;52.130;5.028;2024-03-06T02:23:20;6.05;;;4.93;;
30301;SDS011;17111;52.130;5.028;2024-03-06T02:25:48;6.78;;;4.97;;
30301;SDS011;17111;52.130;5.028;2024-03-06T02:28:15;6.22;;;5.00;;
30301;SDS011;17111;52.130;5.028;2024-03-06T02:30:43;4.93;;;4.22;;
30301;SDS011;17111;52.130;5.028;2024-03-06T02:33:10;5.68;;;4.78;;
30301;SDS011;17111;52.130;5.028;2024-03-06T02:35:37;5.93;;;4.68;;
30301;SDS011;17111;52.130;5.028;2024-03-06T02:38:04;7.32;;;4.95;;
30301;SDS011;17111;52.130;5.028;2024-03-06T02:40:32;7.18;;;4.63;;
30301;SDS011;17111;52.130;5.028;2024-03-06T02:42:59;5.97;;;4.50;;
30301;SDS011;17111;52.130;5.028;2024-03-06T02:45:25;6.15;;;4.90;;
30301;SDS011;17111;52.130;5.028;2024-03-06T02:47:52;5.20;;;4.57;;
30301;SDS011;17111;52.130;5.028;2024-03-06T02:50:19;6.50;;;4.60;;
30301;SDS011;17111;52.130;5.028;2024-03-06T02:52:47;7.22;;;5.47;;
30301;SDS011;17111;52.130;5.028;2024-03-06T02:55:14;6.18;;;4.75;;
30301;SDS011;17111;52.130;5.028;2024-03-06T02:57:41;6.75;;;5.03;;
30301;SDS011;17111;52.130;5.028;2024-03-06T03:00:08;6.88;;;4.82;;
30301;SDS011;17111;52.130;5.028;2024-03-06T03:02:39;5.22;;;4.32;;
30301;SDS011;17111;52.130;5.028;2024-03-06T03:05:06;6.07;;;4.85;;
30301;SDS011;17111;52.130;5.028;2024-03-06T03:07:33;6.03;;;5.22;;
30301;SDS011;17111;52.130;5.028;2024-03-06T03:10:00;5.88;;;4.88;;
30301;SDS011;17111;52.130;5.028;2024-03-06T03:12:27;6.70;;;4.72;;
30301;SDS011;17111;52.130;5.028;2024-03-06T03:14:53;5.28;;;4.53;;
30301;SDS011;17111;52.130;5.028;2024-03-06T03:17:20;5.32;;;4.43;;
30301;SDS011;17111;52.130;5.028;2024-03-06T03:19:47;5.68;;;4.63;;
30301;SDS011;17111;52.130;5.028;2024-03-06T03:22:13;6.00;;;4.85;;
30301;SDS011;17111;52.130;5.028;2024-03-06T03:24:43;5.45;;;4.30;;
30301;SDS011;17111;52.130;5.028;2024-03-06T03:27:09;5.45;;;4.50;;
30301;SDS011;17111;52.130;5.028;2024-03-06T03:29:37;6.18;;;4.63;;
30301;SDS011;17111;52.130;5.028;2024-03-06T03:32:04;5.10;;;4.20;;
30301;SDS011;17111;52.130;5.028;2024-03-06T03:34:30;7.82;;;4.60;;
30301;SDS011;17111;52.130;5.028;2024-03-06T03:36:57;6.05;;;4.70;;
30301;SDS011;17111;52.130;5.028;2024-03-06T03:39:24;5.97;;;4.50;;
30301;SDS011;17111;52.130;5.028;2024-03-06T03:41:51;5.05;;;4.55;;
30301;SDS011;17111;52.130;5.028;2024-03-06T03:44:17;5.22;;;4.60;;
30301;SDS011;17111;52.130;5.028;2024-03-06T03:46:47;6.32;;;4.60;;
30301;SDS011;17111;52.130;5.028;2024-03-06T03:49:14;4.90;;;4.18;;
30301;SDS011;17111;52.130;5.028;2024-03-06T03:51:41;6.25;;;4.70;;
30301;SDS011;17111;52.130;5.028;2024-03-06T03:54:08;4.95;;;4.35;;
30301;SDS011;17111;52.130;5.028;2024-03-06T03:56:35;5.07;;;4.10;;
30301;SDS011;17111;52.130;5.028;2024-03-06T03:59:02;5.72;;;4.13;;
30301;SDS011;17111;52.130;5.028;2024-03-06T04:01:29;5.63;;;3.83;;
30301;SDS011;17111;52.130;5.028;2024-03-06T04:03:55;6.82;;;5.20;;
30301;SDS011;17111;52.130;5.028;2024-03-06T04:06:22;5.05;;;4.40;;
30301;SDS011;17111;52.130;5.028;2024-03-06T04:08:49;5.22;;;3.80;;
30301;SDS011;17111;52.130;5.028;2024-03-06T04:11:15;5.28;;;4.18;;
30301;SDS011;17111;52.130;5.028;2024-03-06T04:13:43;5.40;;;4.03;;
30301;SDS011;17111;52.130;5.028;2024-03-06T04:16:09;5.45;;;4.00;;
30301;SDS011;17111;52.130;5.028;2024-03-06T04:18:36;5.80;;;4.35;;
30301;SDS011;17111;52.130;5.028;2024-03-06T04:21:04;4.30;;;3.83;;
30301;SDS011;17111;52.130;5.028;2024-03-06T04:23:31;6.05;;;4.28;;
30301;SDS011;17111;52.130;5.028;2024-03-06T04:25:59;4.38;;;3.92;;
30301;SDS011;17111;52.130;5.028;2024-03-06T04:28:26;5.78;;;4.00;;
30301;SDS011;17111;52.130;5.028;2024-03-06T04:30:53;5.30;;;4.25;;
30301;SDS011;17111;52.130;5.028;2024-03-06T04:33:20;5.28;;;4.10;;
30301;SDS011;17111;52.130;5.028;2024-03-06T04:35:47;5.47;;;4.10;;
30301;SDS011;17111;52.130;5.028;2024-03-06T04:38:13;4.57;;;3.83;;
30301;SDS011;17111;52.130;5.028;2024-03-06T04:40:40;5.13;;;3.88;;
30301;SDS011;17111;52.130;5.028;2024-03-06T04:43:07;6.32;;;4.47;;
30301;SDS011;17111;52.130;5.028;2024-03-06T04:45:34;4.30;;;3.80;;
30301;SDS011;17111;52.130;5.028;2024-03-06T04:48:00;4.63;;;4.05;;
30301;SDS011;17111;52.130;5.028;2024-03-06T04:50:27;5.32;;;4.03;;
30301;SDS011;17111;52.130;5.028;2024-03-06T04:52:54;6.10;;;4.43;;
30301;SDS011;17111;52.130;5.028;2024-03-06T04:55:22;6.68;;;4.15;;
30301;SDS011;17111;52.130;5.028;2024-03-06T04:57:49;6.38;;;4.07;;
30301;SDS011;17111;52.130;5.028;2024-03-06T05:00:16;5.10;;;4.03;;
30301;SDS011;17111;52.130;5.028;2024-03-06T05:02:44;5.53;;;4.35;;
30301;SDS011;17111;52.130;5.028;2024-03-06T05:05:29;5.15;;;4.10;;
30301;SDS011;17111;52.130;5.028;2024-03-06T05:10:59;4.63;;;3.58;;
30301;SDS011;17111;52.130;5.028;2024-03-06T05:13:44;7.63;;;4.35;;
30301;SDS011;17111;52.130;5.028;2024-03-06T05:19:12;8.13;;;4.77;;
30301;SDS011;17111;52.130;5.028;2024-03-06T05:24:40;6.38;;;4.90;;
30301;SDS011;17111;52.130;5.028;2024-03-06T05:27:25;5.88;;;4.78;;
30301;SDS011;17111;52.130;5.028;2024-03-06T05:30:09;5.93;;;5.03;;
30301;SDS011;17111;52.130;5.028;2024-03-06T05:32:54;7.25;;;5.65;;
30301;SDS011;17111;52.130;5.028;2024-03-06T05:35:38;5.78;;;5.18;;
30301;SDS011;17111;52.130;5.028;2024-03-06T05:41:06;6.03;;;5.10;;
30301;SDS011;17111;52.130;5.028;2024-03-06T05:46:34;6.38;;;5.05;;
30301;SDS011;17111;52.130;5.028;2024-03-06T05:49:18;6.60;;;5.20;;
30301;SDS011;17111;52.130;5.028;2024-03-06T05:52:01;5.45;;;4.80;;
30301;SDS011;17111;52.130;5.028;2024-03-06T05:54:46;7.03;;;4.82;;
30301;SDS011;17111;52.130;5.028;2024-03-06T05:57:30;6.18;;;4.95;;
30301;SDS011;17111;52.130;5.028;2024-03-06T06:02:41;5.15;;;4.30;;
30301;SDS011;17111;52.130;5.028;2024-03-06T06:05:08;6.53;;;5.05;;
30301;SDS011;17111;52.130;5.028;2024-03-06T06:07:49;6.47;;;5.13;;
30301;SDS011;17111;52.130;5.028;2024-03-06T06:10:16;5.65;;;4.47;;
30301;SDS011;17111;52.130;5.028;2024-03-06T06:12:47;6.30;;;4.93;;
30301;SDS011;17111;52.130;5.028;2024-03-06T06:15:14;6.20;;;5.07;;
30301;SDS011;17111;52.130;5.028;2024-03-06T06:17:41;5.80;;;4.63;;
30301;SDS011;17111;52.130;5.028;2024-03-06T06:20:11;5.72;;;4.60;;
30301;SDS011;17111;52.130;5.028;2024-03-06T06:22:42;6.03;;;4.80;;
30301;SDS011;17111;52.130;5.028;2024-03-06T06:25:09;8.13;;;5.03;;
30301;SDS011;17111;52.130;5.028;2024-03-06T06:27:36;6.13;;;5.03;;
30301;SDS011;17111;52.130;5.028;2024-03-06T06:30:03;7.63;;;5.32;;
30301;SDS011;17111;52.130;5.028;2024-03-06T06:32:32;7.43;;;5.53;;
30301;SDS011;17111;52.130;5.028;2024-03-06T06:34:59;6.53;;;5.13;;
30301;SDS011;17111;52.130;5.028;2024-03-06T06:37:26;6.60;;;5.28;;
30301;SDS011;17111;52.130;5.028;2024-03-06T06:39:53;5.53;;;4.93;;
30301;SDS011;17111;52.130;5.028;2024-03-06T06:42:20;6.68;;;4.90;;
30301;SDS011;17111;52.130;5.028;2024-03-06T06:44:46;6.15;;;5.00;;
30301;SDS011;17111;52.130;5.028;2024-03-06T06:47:13;6.72;;;5.40;;
30301;SDS011;17111;52.130;5.028;2024-03-06T06:49:40;6.72;;;4.95;;
30301;SDS011;17111;52.130;5.028;2024-03-06T06:52:06;6.10;;;5.00;;
30301;SDS011;17111;52.130;5.028;2024-03-06T06:54:34;8.40;;;5.22;;
30301;SDS011;17111;52.130;5.028;2024-03-06T06:57:00;5.90;;;5.15;;
30301;SDS011;17111;52.130;5.028;2024-03-06T06:59:27;6.22;;;4.65;;
30301;SDS011;17111;52.130;5.028;2024-03-06T07:01:54;6.72;;;4.50;;
30301;SDS011;17111;52.130;5.028;2024-03-06T07:04:21;7.28;;;5.15;;
30301;SDS011;17111;52.130;5.028;2024-03-06T07:06:50;6.18;;;4.75;;
30301;SDS011;17111;52.130;5.028;2024-03-06T07:09:17;7.03;;;4.82;;
30301;SDS011;17111;52.130;5.028;2024-03-06T07:11:44;6.22;;;4.80;;
30301;SDS011;17111;52.130;5.028;2024-03-06T07:14:12;9.35;;;5.20;;
30301;SDS011;17111;52.130;5.028;2024-03-06T07:16:42;5.53;;;4.65;;
30301;SDS011;17111;52.130;5.028;2024-03-06T07:19:10;6.75;;;5.38;;
30301;SDS011;17111;52.130;5.028;2024-03-06T07:21:37;7.13;;;5.22;;
30301;SDS011;17111;52.130;5.028;2024-03-06T07:24:04;5.65;;;4.78;;
30301;SDS011;17111;52.130;5.028;2024-03-06T07:26:32;5.72;;;4.70;;
30301;SDS011;17111;52.130;5.028;2024-03-06T07:28:59;6.20;;;4.90;;
30301;SDS011;17111;52.130;5.028;2024-03-06T07:31:26;6.80;;;4.68;;
30301;SDS011;17111;52.130;5.028;2024-03-06T07:33:53;6.82;;;4.88;;
30301;SDS011;17111;52.130;5.028;2024-03-06T07:36:20;6.28;;;4.82;;
30301;SDS011;17111;52.130;5.028;2024-03-06T07:38:47;6.03;;;4.70;;
30301;SDS011;17111;52.130;5.028;2024-03-06T07:41:14;7.57;;;5.57;;
30301;SDS011;17111;52.130;5.028;2024-03-06T07:43:40;7.03;;;5.10;;
30301;SDS011;17111;52.130;5.028;2024-03-06T07:46:07;5.50;;;4.40;;
30301;SDS011;17111;52.130;5.028;2024-03-06T07:48:37;6.00;;;4.65;;
30301;SDS011;17111;52.130;5.028;2024-03-06T07:51:04;6.35;;;4.60;;
30301;SDS011;17111;52.130;5.028;2024-03-06T07:53:31;5.68;;;4.57;;
30301;SDS011;17111;52.130;5.028;2024-03-06T07:55:58;5.28;;;4.10;;
30301;SDS011;17111;52.130;5.028;2024-03-06T07:58:24;7.88;;;4.50;;
30301;SDS011;17111;52.130;5.028;2024-03-06T08:00:51;5.85;;;4.63;;
30301;SDS011;17111;52.130;5.028;2024-03-06T08:03:25;7.72;;;5.03;;
30301;SDS011;17111;52.130;5.028;2024-03-06T08:05:51;7.13;;;5.03;;
30301;SDS011;17111;52.130;5.028;2024-03-06T08:08:21;6.38;;;5.00;;
30301;SDS011;17111;52.130;5.028;2024-03-06T08:10:48;5.63;;;4.80;;
30301;SDS011;17111;52.130;5.028;2024-03-06T08:13:15;6.80;;;5.22;;
30301;SDS011;17111;52.130;5.028;2024-03-06T08:15:42;6.15;;;4.90;;
30301;SDS011;17111;52.130;5.028;2024-03-06T08:18:11;6.53;;;5.13;;
30301;SDS011;17111;52.130;5.028;2024-03-06T08:20:39;7.47;;;5.07;;
30301;SDS011;17111;52.130;5.028;2024-03-06T08:23:07;7.18;;;4.97;;
30301;SDS011;17111;52.130;5.028;2024-03-06T08:25:34;7.05;;;5.30;;
30301;SDS011;17111;52.130;5.028;2024-03-06T08:28:01;6.47;;;4.75;;
30301;SDS011;17111;52.130;5.028;2024-03-06T08:30:29;7.85;;;5.60;;
30301;SDS011;17111;52.130;5.028;2024-03-06T08:32:58;5.38;;;4.68;;
30301;SDS011;17111;52.130;5.028;2024-03-06T08:35:26;7.35;;;5.43;;
30301;SDS011;17111;52.130;5.028;2024-03-06T08:37:53;8.18;;;6.03;;
30301;SDS011;17111;52.130;5.028;2024-03-06T08:40:19;6.70;;;5.30;;
30301;SDS011;17111;52.130;5.028;2024-03-06T08:42:47;7.55;;;5.68;;
30301;SDS011;17111;52.130;5.028;2024-03-06T08:45:18;6.55;;;5.13;;
30301;SDS011;17111;52.130;5.028;2024-03-06T08:47:45;6.65;;;5.43;;
30301;SDS011;17111;52.130;5.028;2024-03-06T08:50:13;8.40;;;5.97;;
30301;SDS011;17111;52.130;5.028;2024-03-06T08:52:40;5.95;;;5.03;;
30301;SDS011;17111;52.130;5.028;2024-03-06T08:55:08;6.40;;;5.43;;
30301;SDS011;17111;52.130;5.028;2024-03-06T08:57:36;6.53;;;5.25;;
30301;SDS011;17111;52.130;5.028;2024-03-06T09:00:04;7.07;;;5.60;;
30301;SDS011;17111;52.130;5.028;2024-03-06T09:02:37;7.07;;;5.60;;
30301;SDS011;17111;52.130;5.028;2024-03-06T09:05:09;7.43;;;5.68;;
30301;SDS011;17111;52.130;5.028;2024-03-06T09:07:37;7.93;;;5.60;;
30301;SDS011;17111;52.130;5.028;2024-03-06T09:10:07;7.53;;;5.43;;
30301;SDS011;17111;52.130;5.028;2024-03-06T09:12:34;8.52;;;6.03;;
30301;SDS011;17111;52.130;5.028;2024-03-06T09:15:01;6.45;;;5.32;;
30301;SDS011;17111;52.130;5.028;2024-03-06T09:17:29;7.60;;;5.95;;
30301;SDS011;17111;52.130;5.028;2024-03-06T09:19:56;7.78;;;5.60;;
30301;SDS011;17111;52.130;5.028;2024-03-06T09:22:38;6.78;;;5.63;;
30301;SDS011;17111;52.130;5.028;2024-03-06T09:25:05;6.93;;;5.20;;
30301;SDS011;17111;52.130;5.028;2024-03-06T09:27:33;6.25;;;5.22;;
30301;SDS011;17111;52.130;5.028;2024-03-06T09:30:00;6.05;;;4.93;;
30301;SDS011;17111;52.130;5.028;2024-03-06T09:32:27;7.38;;;5.35;;
30301;SDS011;17111;52.130;5.028;2024-03-06T09:34:53;7.00;;;5.38;;
30301;SDS011;17111;52.130;5.028;2024-03-06T09:37:20;6.63;;;5.53;;
30301;SDS011;17111;52.130;5.028;2024-03-06T09:39:47;6.95;;;5.38;;
30301;SDS011;17111;52.130;5.028;2024-03-06T09:42:16;6.00;;;4.78;;
30301;SDS011;17111;52.130;5.028;2024-03-06T09:44:43;7.50;;;5.13;;
30301;SDS011;17111;52.130;5.028;2024-03-06T09:47:12;7.15;;;5.15;;
30301;SDS011;17111;52.130;5.028;2024-03-06T09:49:42;6.47;;;4.70;;
30301;SDS011;17111;52.130;5.028;2024-03-06T09:52:09;5.90;;;5.03;;
30301;SDS011;17111;52.130;5.028;2024-03-06T09:54:37;6.65;;;4.88;;
30301;SDS011;17111;52.130;5.028;2024-03-06T09:57:07;6.47;;;5.38;;
30301;SDS011;17111;52.130;5.028;2024-03-06T09:59:34;6.95;;;4.57;;
30301;SDS011;17111;52.130;5.028;2024-03-06T10:02:01;6.90;;;5.05;;
30301;SDS011;17111;52.130;5.028;2024-03-06T10:04:39;7.07;;;5.10;;
30301;SDS011;17111;52.130;5.028;2024-03-06T10:07:06;7.78;;;4.75;;
30301;SDS011;17111;52.130;5.028;2024-03-06T10:09:34;6.57;;;4.97;;
30301;SDS011;17111;52.130;5.028;2024-03-06T10:12:00;7.57;;;5.30;;
30301;SDS011;17111;52.130;5.028;2024-03-06T10:14:32;6.65;;;5.30;;
30301;SDS011;17111;52.130;5.028;2024-03-06T10:16:59;8.38;;;5.22;;
30301;SDS011;17111;52.130;5.028;2024-03-06T10:19:28;6.30;;;4.57;;
30301;SDS011;17111;52.130;5.028;2024-03-06T10:21:56;6.80;;;5.00;;
30301;SDS011;17111;52.130;5.028;2024-03-06T10:24:25;7.20;;;5.50;;
30301;SDS011;17111;52.130;5.028;2024-03-06T10:26:56;5.95;;;4.93;;
30301;SDS011;17111;52.130;5.028;2024-03-06T10:29:28;7.00;;;4.93;;
30301;SDS011;17111;52.130;5.028;2024-03-06T10:31:59;6.20;;;4.93;;
30301;SDS011;17111;52.130;5.028;2024-03-06T10:34:26;7.07;;;4.90;;
30301;SDS011;17111;52.130;5.028;2024-03-06T10:36:56;5.68;;;4.68;;
30301;SDS011;17111;52.130;5.028;2024-03-06T10:39:35;4.82;;;4.32;;
30301;SDS011;17111;52.130;5.028;2024-03-06T10:42:07;6.28;;;5.32;;
30301;SDS011;17111;52.130;5.028;2024-03-06T10:44:36;6.63;;;5.30;;
30301;SDS011;17111;52.130;5.028;2024-03-06T10:47:09;7.03;;;5.18;;
30301;SDS011;17111;52.130;5.028;2024-03-06T10:49:36;6.63;;;5.38;;
30301;SDS011;17111;52.130;5.028;2024-03-06T10:52:04;6.40;;;5.10;;
30301;SDS011;17111;52.130;5.028;2024-03-06T10:54:34;6.50;;;5.07;;
30301;SDS011;17111;52.130;5.028;2024-03-06T10:57:05;6.75;;;5.32;;
30301;SDS011;17111;52.130;5.028;2024-03-06T10:59:32;6.95;;;5.05;;
30301;SDS011;17111;52.130;5.028;2024-03-06T11:02:01;6.35;;;5.05;;
30301;SDS011;17111;52.130;5.028;2024-03-06T11:04:28;6.07;;;4.65;;
30301;SDS011;17111;52.130;5.028;2024-03-06T11:06:56;7.30;;;5.50;;
30301;SDS011;17111;52.130;5.028;2024-03-06T11:09:35;6.15;;;4.82;;
30301;SDS011;17111;52.130;5.028;2024-03-06T11:12:02;6.75;;;5.30;;
30301;SDS011;17111;52.130;5.028;2024-03-06T11:14:30;6.68;;;5.45;;
30301;SDS011;17111;52.130;5.028;2024-03-06T11:16:59;6.40;;;5.03;;
30301;SDS011;17111;52.130;5.028;2024-03-06T11:28:17;7.32;;;5.10;;
30301;SDS011;17111;52.130;5.028;2024-03-06T11:30:45;7.20;;;5.07;;
30301;SDS011;17111;52.130;5.028;2024-03-06T11:33:22;6.85;;;5.28;;
30301;SDS011;17111;52.130;5.028;2024-03-06T11:41:14;8.00;;;4.85;;
30301;SDS011;17111;52.130;5.028;2024-03-06T11:43:43;7.18;;;5.38;;
30301;SDS011;17111;52.130;5.028;2024-03-06T11:46:10;6.75;;;5.05;;
30301;SDS011;17111;52.130;5.028;2024-03-06T11:48:37;6.82;;;5.20;;
30301;SDS011;17111;52.130;5.028;2024-03-06T11:51:05;7.95;;;5.47;;
30301;SDS011;17111;52.130;5.028;2024-03-06T11:53:34;6.68;;;4.95;;
30301;SDS011;17111;52.130;5.028;2024-03-06T11:56:05;5.68;;;4.90;;
30301;SDS011;17111;52.130;5.028;2024-03-06T11:58:34;7.65;;;5.90;;
30301;SDS011;17111;52.130;5.028;2024-03-06T12:01:01;5.47;;;4.43;;
30301;SDS011;17111;52.130;5.028;2024-03-06T12:03:27;6.18;;;4.75;;
30301;SDS011;17111;52.130;5.028;2024-03-06T12:05:54;6.38;;;4.70;;
30301;SDS011;17111;52.130;5.028;2024-03-06T12:08:21;5.07;;;4.38;;
30301;SDS011;17111;52.130;5.028;2024-03-06T12:10:48;6.75;;;4.65;;
30301;SDS011;17111;52.130;5.028;2024-03-06T12:13:14;5.63;;;4.57;;
30301;SDS011;17111;52.130;5.028;2024-03-06T12:15:44;6.63;;;4.68;;
30301;SDS011;17111;52.130;5.028;2024-03-06T12:18:11;5.75;;;4.60;;
30301;SDS011;17111;52.130;5.028;2024-03-06T12:20:41;7.43;;;5.03;;
30301;SDS011;17111;52.130;5.028;2024-03-06T12:23:30;6.07;;;4.93;;
30301;SDS011;17111;52.130;5.028;2024-03-06T12:26:06;4.55;;;3.60;;
30301;SDS011;17111;52.130;5.028;2024-03-06T12:28:36;6.10;;;4.47;;
30301;SDS011;17111;52.130;5.028;2024-03-06T12:31:04;6.38;;;4.60;;
30301;SDS011;17111;52.130;5.028;2024-03-06T12:33:31;5.63;;;4.20;;
30301;SDS011;17111;52.130;5.028;2024-03-06T12:36:03;6.03;;;4.50;;
30301;SDS011;17111;52.130;5.028;2024-03-06T12:38:31;5.82;;;4.15;;
30301;SDS011;17111;52.130;5.028;2024-03-06T12:40:59;6.82;;;5.05;;
30301;SDS011;17111;52.130;5.028;2024-03-06T12:43:26;5.10;;;4.03;;
30301;SDS011;17111;52.130;5.028;2024-03-06T12:45:54;6.45;;;4.13;;
30301;SDS011;17111;52.130;5.028;2024-03-06T12:48:23;6.82;;;4.78;;
30301;SDS011;17111;52.130;5.028;2024-03-06T12:50:52;6.18;;;4.15;;
30301;SDS011;17111;52.130;5.028;2024-03-06T12:53:21;5.20;;;4.18;;
30301;SDS011;17111;52.130;5.028;2024-03-06T12:55:48;5.00;;;4.35;;
30301;SDS011;17111;52.130;5.028;2024-03-06T12:58:15;5.88;;;4.93;;
30301;SDS011;17111;52.130;5.028;2024-03-06T13:00:41;5.35;;;4.47;;
30301;SDS011;17111;52.130;5.028;2024-03-06T13:03:08;4.90;;;3.90;;
30301;SDS011;17111;52.130;5.028;2024-03-06T13:05:36;5.65;;;4.57;;
30301;SDS011;17111;52.130;5.028;2024-03-06T13:08:03;4.43;;;4.00;;
30301;SDS011;17111;52.130;5.028;2024-03-06T13:10:30;4.78;;;4.30;;
30301;SDS011;17111;52.130;5.028;2024-03-06T13:12:58;6.88;;;3.95;;
30301;SDS011;17111;52.130;5.028;2024-03-06T13:15:24;4.13;;;3.28;;
30301;SDS011;17111;52.130;5.028;2024-03-06T13:17:51;5.07;;;3.30;;
30301;SDS011;17111;52.130;5.028;2024-03-06T13:20:18;4.63;;;3.67;;
30301;SDS011;17111;52.130;5.028;2024-03-06T13:22:45;5.20;;;3.58;;
30301;SDS011;17111;52.130;5.028;2024-03-06T13:25:12;5.85;;;3.60;;
30301;SDS011;17111;52.130;5.028;2024-03-06T13:27:38;5.53;;;3.67;;
30301;SDS011;17111;52.130;5.028;2024-03-06T13:30:05;4.68;;;3.55;;
30301;SDS011;17111;52.130;5.028;2024-03-06T13:32:34;6.00;;;3.92;;
30301;SDS011;17111;52.130;5.028;2024-03-06T13:35:01;5.72;;;4.10;;
30301;SDS011;17111;52.130;5.028;2024-03-06T13:37:28;5.18;;;4.22;;
30301;SDS011;17111;52.130;5.028;2024-03-06T13:39:55;4.22;;;3.50;;
30301;SDS011;17111;52.130;5.028;2024-03-06T13:42:27;4.88;;;3.85;;
30301;SDS011;17111;52.130;5.028;2024-03-06T13:44:54;5.60;;;4.15;;
30301;SDS011;17111;52.130;5.028;2024-03-06T13:47:22;7.55;;;4.57;;
30301;SDS011;17111;52.130;5.028;2024-03-06T13:49:48;5.47;;;3.88;;
30301;SDS011;17111;52.130;5.028;2024-03-06T13:52:15;3.97;;;3.47;;
30301;SDS011;17111;52.130;5.028;2024-03-06T13:54:46;5.43;;;3.78;;
30301;SDS011;17111;52.130;5.028;2024-03-06T13:57:16;5.60;;;3.92;;
30301;SDS011;17111;52.130;5.028;2024-03-06T13:59:42;6.05;;;3.70;;
30301;SDS011;17111;52.130;5.028;2024-03-06T14:02:09;5.43;;;3.40;;
30301;SDS011;17111;52.130;5.028;2024-03-06T14:04:36;5.45;;;3.38;;
30301;SDS011;17111;52.130;5.028;2024-03-06T14:07:03;4.20;;;3.30;;
30301;SDS011;17111;52.130;5.028;2024-03-06T14:09:29;4.05;;;3.03;;
30301;SDS011;17111;52.130;5.028;2024-03-06T14:11:57;3.65;;;2.92;;
30301;SDS011;17111;52.130;5.028;2024-03-06T14:14:24;3.67;;;2.80;;
30301;SDS011;17111;52.130;5.028;2024-03-06T14:16:50;3.38;;;3.05;;
30301;SDS011;17111;52.130;5.028;2024-03-06T14:19:17;3.88;;;2.85;;
30301;SDS011;17111;52.130;5.028;2024-03-06T14:21:44;3.83;;;3.33;;
30301;SDS011;17111;52.130;5.028;2024-03-06T14:24:10;4.03;;;2.95;;
30301;SDS011;17111;52.130;5.028;2024-03-06T14:26:37;5.15;;;3.53;;
30301;SDS011;17111;52.130;5.028;2024-03-06T14:29:05;3.47;;;3.05;;
30301;SDS011;17111;52.130;5.028;2024-03-06T14:31:34;4.20;;;2.72;;
30301;SDS011;17111;52.130;5.028;2024-03-06T14:34:01;4.07;;;2.95;;
30301;SDS011;17111;52.130;5.028;2024-03-06T14:36:32;3.28;;;2.83;;
30301;SDS011;17111;52.130;5.028;2024-03-06T14:38:58;3.47;;;2.97;;
30301;SDS011;17111;52.130;5.028;2024-03-06T14:41:25;4.28;;;2.92;;
30301;SDS011;17111;52.130;5.028;2024-03-06T14:43:52;4.38;;;3.10;;
30301;SDS011;17111;52.130;5.028;2024-03-06T14:46:20;3.05;;;2.70;;
30301;SDS011;17111;52.130;5.028;2024-03-06T14:48:46;3.40;;;2.63;;
30301;SDS011;17111;52.130;5.028;2024-03-06T14:51:13;3.47;;;2.67;;
30301;SDS011;17111;52.130;5.028;2024-03-06T14:53:39;3.80;;;2.42;;
30301;SDS011;17111;52.130;5.028;2024-03-06T14:56:06;2.95;;;2.30;;
30301;SDS011;17111;52.130;5.028;2024-03-06T14:58:33;3.83;;;2.17;;
30301;SDS011;17111;52.130;5.028;2024-03-06T15:01:00;3.50;;;2.63;;
30301;SDS011;17111;52.130;5.028;2024-03-06T15:03:26;2.40;;;1.88;;
30301;SDS011;17111;52.130;5.028;2024-03-06T15:05:53;2.35;;;1.80;;
30301;SDS011;17111;52.130;5.028;2024-03-06T15:08:20;3.30;;;2.40;;
30301;SDS011;17111;52.130;5.028;2024-03-06T15:10:47;3.35;;;2.00;;
30301;SDS011;17111;52.130;5.028;2024-03-06T15:13:13;3.42;;;2.00;;
30301;SDS011;17111;52.130;5.028;2024-03-06T15:15:42;3.75;;;2.13;;
30301;SDS011;17111;52.130;5.028;2024-03-06T15:18:09;2.60;;;2.13;;
30301;SDS011;17111;52.130;5.028;2024-03-06T15:20:36;3.15;;;2.65;;
30301;SDS011;17111;52.130;5.028;2024-03-06T15:23:03;3.60;;;2.17;;
30301;SDS011;17111;52.130;5.028;2024-03-06T15:25:30;3.58;;;2.17;;